Time;durP1;ratioP1;P1;durP2;ratioP2;P2;SDS_P1;SDS_P2;PMS_P1;PMS_P2;Temp;Humidity;BMP_temperature;BMP_pressure;BME280_temperature;BME280_humidity;BME280_pressure;Samples;Min_cycle;Max_cycle;Signal;HPM_P1;HPM_P2
2022/12/23 00:01:52;;;;;;;8.13;5.50;;;;;;;;;;5072917;28;20432;-71
2022/12/23 00:04:19;;;;;;;12.60;7.13;;;;;;;;;;5091107;28;20186;-71
2022/12/23 00:06:46;;;;;;;14.13;8.53;;;;;;;;;;5072862;28;20239;-71
2022/12/23 00:09:13;;;;;;;13.37;7.93;;;;;;;;;;5091303;28;20794;-71
2022/12/23 00:15:04;;;;;;;11.50;7.13;;;;;;;;;;5070788;28;20640;-72
2022/12/23 00:17:12;;;;;;;12.63;7.53;;;;;;;;;;5052781;28;20221;-72
2022/12/23 00:19:54;;;;;;;16.13;7.87;;;;;;;;;;5055306;28;20186;-72
2022/12/23 00:23:03;;;;;;;12.57;6.87;;;;;;;;;;5070609;28;20648;-72
2022/12/23 00:25:07;;;;;;;14.27;8.00;;;;;;;;;;5070189;28;20462;-71
2022/12/23 00:27:34;;;;;;;16.03;7.33;;;;;;;;;;5072350;28;20221;-72
2022/12/23 00:30:03;;;;;;;13.50;7.07;;;;;;;;;;5071156;28;20444;-72
2022/12/23 00:32:30;;;;;;;14.23;7.20;;;;;;;;;;5070143;28;20190;-71
2022/12/23 00:34:57;;;;;;;13.93;7.40;;;;;;;;;;5052511;28;20463;-71
2022/12/23 00:37:25;;;;;;;13.90;7.83;;;;;;;;;;5069102;28;20981;-72
2022/12/23 00:42:52;;;;;;;17.43;8.60;;;;;;;;;;5055237;28;20193;-72
2022/12/23 00:45:19;;;;;;;15.10;8.87;;;;;;;;;;5054764;28;20205;-72
2022/12/23 00:50:33;;;;;;;17.73;9.50;;;;;;;;;;5073152;28;20474;-72
2022/12/23 00:53:00;;;;;;;17.57;9.80;;;;;;;;;;5071565;28;20587;-71
2022/12/23 00:55:26;;;;;;;18.50;9.20;;;;;;;;;;5070871;28;20648;-71
2022/12/23 00:57:53;;;;;;;21.90;11.37;;;;;;;;;;5089663;28;20243;-71
2022/12/23 01:05:35;;;;;;;18.97;10.90;;;;;;;;;;5089915;28;20428;-71
2022/12/23 01:05:57;;;;;;;22.03;12.30;;;;;;;;;;5089932;28;20235;-72
2022/12/23 01:08:24;;;;;;;20.40;10.47;;;;;;;;;;5038915;28;20215;-71
2022/12/23 01:10:50;;;;;;;20.00;8.63;;;;;;;;;;5071842;28;20189;-71
2022/12/23 01:13:17;;;;;;;18.73;9.93;;;;;;;;;;5071860;28;20201;-71
2022/12/23 01:15:44;;;;;;;24.37;11.33;;;;;;;;;;5071540;28;20715;-71
2022/12/23 01:18:11;;;;;;;20.63;10.90;;;;;;;;;;5090057;28;20196;-71
2022/12/23 01:20:38;;;;;;;22.50;13.00;;;;;;;;;;5089767;28;20208;-71
2022/12/23 01:23:05;;;;;;;23.90;12.67;;;;;;;;;;5055185;28;20877;-71
2022/12/23 01:25:32;;;;;;;20.53;10.57;;;;;;;;;;5069423;28;20196;-71
2022/12/23 01:27:58;;;;;;;25.03;11.03;;;;;;;;;;5051511;28;20652;-71
2022/12/23 01:30:25;;;;;;;22.20;11.90;;;;;;;;;;5069281;28;20193;-71
2022/12/23 01:32:52;;;;;;;23.63;12.37;;;;;;;;;;5069312;28;20217;-72
2022/12/23 01:35:19;;;;;;;21.37;11.17;;;;;;;;;;5051597;28;20182;-71
2022/12/23 01:37:46;;;;;;;19.63;11.17;;;;;;;;;;5068903;28;20794;-72
2022/12/23 01:40:12;;;;;;;22.33;11.27;;;;;;;;;;5073838;28;20243;-71
2022/12/23 01:42:42;;;;;;;22.77;12.20;;;;;;;;;;5071357;28;20200;-71
2022/12/23 01:45:15;;;;;;;20.87;11.10;;;;;;;;;;5089560;28;20268;-72
2022/12/23 01:47:47;;;;;;;22.93;12.40;;;;;;;;;;5071074;28;20200;-72
2022/12/23 01:50:17;;;;;;;22.83;12.53;;;;;;;;;;5089247;28;20463;-71
2022/12/23 01:52:48;;;;;;;26.07;11.90;;;;;;;;;;5089134;28;20427;-71
2022/12/23 01:55:15;;;;;;;20.03;11.53;;;;;;;;;;5089328;28;20216;-72
2022/12/23 01:57:43;;;;;;;23.37;11.80;;;;;;;;;;5055328;28;21205;-71
2022/12/23 02:05:41;;;;;;;20.20;11.73;;;;;;;;;;5070662;28;20424;-71
2022/12/23 02:10:57;;;;;;;25.40;11.23;;;;;;;;;;5058162;28;20442;-72
2022/12/23 02:16:15;;;;;;;21.87;11.43;;;;;;;;;;5075963;28;20193;-71
2022/12/23 02:16:31;;;;;;;19.37;10.07;;;;;;;;;;5057734;28;20436;-71
2022/12/23 02:19:00;;;;;;;23.83;12.33;;;;;;;;;;5055255;28;20657;-71
2022/12/23 02:21:42;;;;;;;22.83;11.37;;;;;;;;;;5055077;28;20428;-71
2022/12/23 02:24:09;;;;;;;20.27;11.77;;;;;;;;;;5073019;28;20768;-72
2022/12/23 02:26:55;;;;;;;19.23;11.87;;;;;;;;;;5054607;28;20497;-72
2022/12/23 02:29:48;;;;;;;21.43;10.77;;;;;;;;;;5054763;28;20428;-71
2022/12/23 02:32:18;;;;;;;22.27;10.67;;;;;;;;;;5042033;28;20285;-71
2022/12/23 02:34:55;;;;;;;23.97;12.47;;;;;;;;;;5054741;28;20267;-71
2022/12/23 02:37:27;;;;;;;18.60;9.33;;;;;;;;;;5065718;28;20438;-72
2022/12/23 02:40:03;;;;;;;22.23;11.00;;;;;;;;;;5093117;28;20205;-71
2022/12/23 02:42:32;;;;;;;20.43;11.10;;;;;;;;;;5092771;28;20450;-72
2022/12/23 02:45:06;;;;;;;23.70;12.00;;;;;;;;;;5074857;28;20772;-71
2022/12/23 02:47:53;;;;;;;22.03;11.60;;;;;;;;;;5092478;28;20247;-71
2022/12/23 02:50:22;;;;;;;27.87;12.10;;;;;;;;;;5092625;28;20476;-71
2022/12/23 02:52:49;;;;;;;21.47;11.57;;;;;;;;;;5074297;28;20177;-71
2022/12/23 02:55:20;;;;;;;25.73;11.83;;;;;;;;;;5082499;28;20229;-71
2022/12/23 02:57:47;;;;;;;25.53;12.70;;;;;;;;;;5071653;28;20182;-71
2022/12/23 03:00:14;;;;;;;21.13;11.50;;;;;;;;;;5054673;28;21151;-71
2022/12/23 03:02:41;;;;;;;20.17;11.57;;;;;;;;;;5054368;28;20190;-71
2022/12/23 03:05:27;;;;;;;24.97;12.77;;;;;;;;;;5054289;28;20189;-72
2022/12/23 03:07:54;;;;;;;18.77;9.63;;;;;;;;;;5071857;28;20236;-71
2022/12/23 03:10:37;;;;;;;25.73;11.07;;;;;;;;;;5037099;28;20983;-72
2022/12/23 03:13:20;;;;;;;24.97;12.27;;;;;;;;;;5051280;28;20768;-72
2022/12/23 03:15:51;;;;;;;24.03;12.37;;;;;;;;;;5071838;28;20459;-72
2022/12/23 03:18:24;;;;;;;24.47;12.00;;;;;;;;;;5053442;28;20243;-72
2022/12/23 03:20:52;;;;;;;27.97;13.03;;;;;;;;;;5071766;28;20435;-71
2022/12/23 03:23:28;;;;;;;24.43;12.20;;;;;;;;;;5053976;28;20244;-72
2022/12/23 03:26:00;;;;;;;23.53;11.97;;;;;;;;;;5071725;28;20580;-71
2022/12/23 03:28:32;;;;;;;26.30;12.43;;;;;;;;;;5069041;28;20193;-73
2022/12/23 03:31:00;;;;;;;26.50;12.27;;;;;;;;;;5091725;28;20467;-71
2022/12/23 03:33:27;;;;;;;25.63;12.43;;;;;;;;;;5073549;28;20590;-72
2022/12/23 03:35:55;;;;;;;23.10;12.50;;;;;;;;;;5057396;28;20432;-72
2022/12/23 03:38:22;;;;;;;27.90;12.37;;;;;;;;;;5073680;28;20489;-72
2022/12/23 03:40:53;;;;;;;21.13;11.13;;;;;;;;;;5073631;28;20716;-72
2022/12/23 03:43:21;;;;;;;24.60;11.57;;;;;;;;;;5054437;28;20627;-72
2022/12/23 03:45:51;;;;;;;23.93;11.73;;;;;;;;;;5070703;28;20193;-72
2022/12/23 03:48:32;;;;;;;24.33;12.13;;;;;;;;;;5073502;28;20215;-72
2022/12/23 03:51:00;;;;;;;26.40;12.17;;;;;;;;;;5057264;28;20678;-72
2022/12/23 03:53:34;;;;;;;25.10;12.43;;;;;;;;;;5056342;28;20443;-72
2022/12/23 03:56:03;;;;;;;31.60;12.13;;;;;;;;;;5073814;28;20181;-72
2022/12/23 03:58:49;;;;;;;23.90;13.03;;;;;;;;;;5072921;28;20216;-72
2022/12/23 04:01:18;;;;;;;26.50;12.10;;;;;;;;;;5085575;28;20193;-72
2022/12/23 04:03:48;;;;;;;26.23;12.63;;;;;;;;;;5056262;28;20661;-72
2022/12/23 04:06:15;;;;;;;26.93;11.37;;;;;;;;;;5073669;28;20660;-72
2022/12/23 04:08:42;;;;;;;27.73;12.80;;;;;;;;;;5073009;28;20197;-72
2022/12/23 04:11:09;;;;;;;25.73;11.73;;;;;;;;;;5073004;28;20217;-72
2022/12/23 04:13:35;;;;;;;24.77;11.93;;;;;;;;;;5072678;28;20238;-72
2022/12/23 04:16:20;;;;;;;25.53;12.10;;;;;;;;;;5075617;28;20188;-72
2022/12/23 04:18:47;;;;;;;30.53;12.50;;;;;;;;;;5061285;28;20190;-72
2022/12/23 04:21:14;;;;;;;35.20;13.60;;;;;;;;;;5069404;28;20190;-72
2022/12/23 04:23:41;;;;;;;28.77;14.00;;;;;;;;;;5036295;28;20205;-72
2022/12/23 04:26:08;;;;;;;27.87;13.33;;;;;;;;;;5070435;28;20255;-72
2022/12/23 04:28:52;;;;;;;30.17;13.27;;;;;;;;;;5067864;28;20171;-72
2022/12/23 04:31:19;;;;;;;29.13;14.30;;;;;;;;;;5070620;28;20190;-72
2022/12/23 04:33:45;;;;;;;31.27;13.27;;;;;;;;;;5069835;28;20259;-72
2022/12/23 04:36:12;;;;;;;27.00;14.33;;;;;;;;;;5081418;28;20496;-72
2022/12/23 04:38:39;;;;;;;27.37;15.23;;;;;;;;;;5072533;28;20467;-72
2022/12/23 04:41:05;;;;;;;27.53;13.40;;;;;;;;;;5090168;28;20871;-72
2022/12/23 04:43:32;;;;;;;32.03;15.70;;;;;;;;;;5090115;28;20193;-72
2022/12/23 04:45:59;;;;;;;31.93;15.10;;;;;;;;;;5090468;28;20518;-72
2022/12/23 04:48:26;;;;;;;28.80;13.90;;;;;;;;;;5055569;28;20201;-72
2022/12/23 04:50:52;;;;;;;29.87;14.90;;;;;;;;;;5090282;28;20424;-72
2022/12/23 04:53:19;;;;;;;29.13;16.30;;;;;;;;;;5089993;28;20182;-72
2022/12/23 04:55:49;;;;;;;31.97;15.90;;;;;;;;;;5089882;28;20478;-72
2022/12/23 04:58:16;;;;;;;32.97;15.97;;;;;;;;;;5068077;28;20189;-72
2022/12/23 05:00:43;;;;;;;33.77;16.10;;;;;;;;;;5088785;28;20173;-72
2022/12/23 05:03:10;;;;;;;38.80;15.57;;;;;;;;;;5090215;28;20193;-72
2022/12/23 05:05:41;;;;;;;33.27;15.97;;;;;;;;;;5070671;28;20745;-77
2022/12/23 05:08:08;;;;;;;34.50;16.10;;;;;;;;;;5068594;28;20431;-70
2022/12/23 05:10:35;;;;;;;34.30;16.97;;;;;;;;;;5090344;28;20705;-77
2022/12/23 05:13:01;;;;;;;33.63;16.70;;;;;;;;;;5089703;28;20188;-70
2022/12/23 05:15:29;;;;;;;31.97;16.40;;;;;;;;;;5063912;28;21040;-78
2022/12/23 05:17:56;;;;;;;32.90;16.37;;;;;;;;;;5052407;28;20784;-72
2022/12/23 05:20:23;;;;;;;35.93;17.50;;;;;;;;;;5068315;28;20236;-72
2022/12/23 05:22:57;;;;;;;40.10;18.63;;;;;;;;;;5052882;28;20459;-73
2022/12/23 05:25:24;;;;;;;31.47;16.17;;;;;;;;;;5069125;28;20186;-78
2022/12/23 05:27:50;;;;;;;37.67;16.53;;;;;;;;;;5069148;28;20553;-74
2022/12/23 05:30:18;;;;;;;36.83;16.90;;;;;;;;;;5051900;28;20430;-76
2022/12/23 05:32:45;;;;;;;31.57;16.30;;;;;;;;;;5055631;28;21254;-74
2022/12/23 05:35:12;;;;;;;33.30;16.03;;;;;;;;;;5071101;28;20467;-74
2022/12/23 05:37:38;;;;;;;33.83;16.20;;;;;;;;;;5089509;28;20480;-70
2022/12/23 05:40:05;;;;;;;23.17;11.50;;;;;;;;;;5069527;28;20427;-71
2022/12/23 05:42:32;;;;;;;27.60;12.03;;;;;;;;;;5037761;28;20185;-70
2022/12/23 05:44:59;;;;;;;23.60;11.90;;;;;;;;;;5071212;28;20966;-72
2022/12/23 05:47:26;;;;;;;26.57;13.47;;;;;;;;;;5089075;28;20208;-72
2022/12/23 05:49:53;;;;;;;29.33;13.03;;;;;;;;;;5083569;28;20467;-73
2022/12/23 05:52:21;;;;;;;31.53;14.93;;;;;;;;;;5071487;28;20190;-70
2022/12/23 05:54:50;;;;;;;25.57;13.93;;;;;;;;;;5071401;28;20209;-77
2022/12/23 05:57:17;;;;;;;28.77;14.63;;;;;;;;;;5071611;28;20663;-71
2022/12/23 05:59:44;;;;;;;24.87;12.73;;;;;;;;;;5071230;28;20774;-69
2022/12/23 06:02:11;;;;;;;27.80;14.03;;;;;;;;;;5089253;28;20263;-72
2022/12/23 06:04:37;;;;;;;30.77;15.73;;;;;;;;;;5089103;28;20786;-77
2022/12/23 06:07:04;;;;;;;23.53;13.27;;;;;;;;;;5083331;28;20446;-78
2022/12/23 06:09:31;;;;;;;23.73;11.70;;;;;;;;;;5051928;28;20478;-78
2022/12/23 06:12:00;;;;;;;18.97;10.00;;;;;;;;;;5069372;28;20435;-73
2022/12/23 06:14:26;;;;;;;27.83;13.33;;;;;;;;;;5068284;28;20986;-74
2022/12/23 06:16:55;;;;;;;25.57;13.33;;;;;;;;;;5069101;28;20433;-78
2022/12/23 06:19:23;;;;;;;27.23;12.87;;;;;;;;;;5068588;28;20186;-71
2022/12/23 06:21:50;;;;;;;26.87;13.23;;;;;;;;;;5068800;28;20182;-73
2022/12/23 06:24:16;;;;;;;27.00;13.20;;;;;;;;;;5074453;28;20174;-77
2022/12/23 06:26:44;;;;;;;25.67;14.53;;;;;;;;;;5071180;28;20289;-77
2022/12/23 06:29:10;;;;;;;23.50;12.90;;;;;;;;;;5088793;28;20246;-73
2022/12/23 06:31:38;;;;;;;26.27;12.93;;;;;;;;;;5071227;28;20213;-81
2022/12/23 06:34:05;;;;;;;29.00;14.17;;;;;;;;;;5088562;28;20280;-73
2022/12/23 06:36:33;;;;;;;30.63;14.60;;;;;;;;;;5089252;28;20181;-75
2022/12/23 06:39:18;;;;;;;29.63;14.77;;;;;;;;;;5072872;28;20181;-71
2022/12/23 06:41:44;;;;;;;30.67;14.47;;;;;;;;;;5069891;28;20487;-71
2022/12/23 06:44:12;;;;;;;34.37;16.50;;;;;;;;;;5055505;28;20212;-70
2022/12/23 06:46:39;;;;;;;25.00;13.73;;;;;;;;;;5067964;28;20280;-71
2022/12/23 06:49:06;;;;;;;25.70;14.73;;;;;;;;;;5049482;28;20479;-73
2022/12/23 06:51:39;;;;;;;29.27;15.47;;;;;;;;;;5088296;28;20244;-76
2022/12/23 06:54:05;;;;;;;28.83;14.47;;;;;;;;;;5075488;28;20546;-77
2022/12/23 06:56:33;;;;;;;28.80;14.77;;;;;;;;;;5051986;28;20204;-79
2022/12/23 06:59:01;;;;;;;29.07;14.03;;;;;;;;;;5075662;28;21165;-75
2022/12/23 07:01:29;;;;;;;22.70;13.03;;;;;;;;;;5087938;28;20446;-72
2022/12/23 07:03:56;;;;;;;22.27;12.50;;;;;;;;;;5074467;28;20424;-72
2022/12/23 07:06:23;;;;;;;25.87;14.40;;;;;;;;;;5074313;28;20247;-72
2022/12/23 07:08:50;;;;;;;29.37;14.70;;;;;;;;;;5079017;28;20190;-72
2022/12/23 07:11:17;;;;;;;24.97;12.20;;;;;;;;;;5060073;28;20436;-73
2022/12/23 07:13:44;;;;;;;24.50;12.10;;;;;;;;;;5088544;28;20181;-72
2022/12/23 07:16:11;;;;;;;23.30;11.00;;;;;;;;;;5062298;28;20214;-72
2022/12/23 07:18:38;;;;;;;18.80;10.97;;;;;;;;;;5083974;28;20201;-72
2022/12/23 07:21:05;;;;;;;25.50;12.63;;;;;;;;;;5089775;28;20269;-74
2022/12/23 07:23:46;;;;;;;20.57;10.93;;;;;;;;;;5056414;28;20509;-71
2022/12/23 07:26:13;;;;;;;25.47;10.60;;;;;;;;;;5090252;28;20185;-72
2022/12/23 07:28:42;;;;;;;21.97;11.23;;;;;;;;;;5068740;28;20862;-72
2022/12/23 07:31:08;;;;;;;27.93;13.23;;;;;;;;;;5090535;28;20197;-72
2022/12/23 07:33:36;;;;;;;28.20;13.93;;;;;;;;;;5090919;28;20185;-72
2022/12/23 07:36:04;;;;;;;26.63;13.33;;;;;;;;;;5056235;28;20299;-72
2022/12/23 07:38:31;;;;;;;25.23;13.13;;;;;;;;;;5088567;28;20186;-72
2022/12/23 07:40:59;;;;;;;23.03;12.40;;;;;;;;;;5060753;28;20233;-72
2022/12/23 07:43:27;;;;;;;23.00;12.23;;;;;;;;;;5072665;28;20193;-72
2022/12/23 07:45:54;;;;;;;24.90;13.00;;;;;;;;;;5071757;28;20257;-71
2022/12/23 07:48:26;;;;;;;24.37;11.67;;;;;;;;;;5088148;28;20197;-72
2022/12/23 07:50:58;;;;;;;27.80;13.80;;;;;;;;;;5068654;28;20470;-72
2022/12/23 07:53:26;;;;;;;34.37;13.87;;;;;;;;;;5071015;28;20197;-73
2022/12/23 07:55:53;;;;;;;31.10;16.00;;;;;;;;;;5057120;28;20475;-71
2022/12/23 07:58:22;;;;;;;27.63;13.80;;;;;;;;;;5063563;28;20197;-72
2022/12/23 08:00:49;;;;;;;28.70;14.20;;;;;;;;;;5066752;28;20780;-74
2022/12/23 08:03:16;;;;;;;26.87;14.30;;;;;;;;;;5051759;28;20190;-77
2022/12/23 08:05:44;;;;;;;24.17;11.47;;;;;;;;;;5063440;28;20186;-77
2022/12/23 08:08:11;;;;;;;27.03;11.73;;;;;;;;;;5079062;28;20233;-77
2022/12/23 08:10:38;;;;;;;21.37;12.30;;;;;;;;;;5102443;28;20573;-78
2022/12/23 08:13:13;;;;;;;25.93;12.43;;;;;;;;;;5068866;28;20189;-75
2022/12/23 08:15:40;;;;;;;29.23;12.97;;;;;;;;;;5101646;28;20209;-77
2022/12/23 08:18:07;;;;;;;24.93;13.47;;;;;;;;;;5095413;28;20177;-77
2022/12/23 08:20:33;;;;;;;24.83;12.70;;;;;;;;;;5090191;28;20439;-74
2022/12/23 08:23:03;;;;;;;28.03;14.17;;;;;;;;;;5092502;28;20197;-76
2022/12/23 08:25:29;;;;;;;26.03;12.00;;;;;;;;;;5048240;28;20739;-75
2022/12/23 08:27:58;;;;;;;25.83;12.93;;;;;;;;;;5081773;28;20459;-74
2022/12/23 08:30:25;;;;;;;24.83;13.90;;;;;;;;;;5088303;28;20205;-75
2022/12/23 08:33:09;;;;;;;18.17;9.07;;;;;;;;;;5084047;28;20195;-77
2022/12/23 08:35:36;;;;;;;22.13;11.70;;;;;;;;;;5100310;28;20466;-73
2022/12/23 08:38:05;;;;;;;26.13;14.00;;;;;;;;;;5062493;28;20964;-70
2022/12/23 08:40:32;;;;;;;27.33;13.13;;;;;;;;;;5060615;28;20475;-76
2022/12/23 08:42:59;;;;;;;20.33;10.50;;;;;;;;;;5069508;28;20854;-74
2022/12/23 08:45:26;;;;;;;14.93;8.30;;;;;;;;;;5040845;28;20949;-76
2022/12/23 08:47:53;;;;;;;20.67;10.40;;;;;;;;;;5068938;28;20444;-75
2022/12/23 08:50:20;;;;;;;24.87;12.80;;;;;;;;;;5061373;28;20233;-76
2022/12/23 08:52:48;;;;;;;26.60;12.17;;;;;;;;;;5079173;28;20433;-77
2022/12/23 08:55:15;;;;;;;24.50;12.97;;;;;;;;;;5030025;28;21006;-75
2022/12/23 08:57:42;;;;;;;21.10;9.63;;;;;;;;;;5073301;28;20428;-73
2022/12/23 09:00:09;;;;;;;24.53;12.20;;;;;;;;;;5058256;28;20190;-75
2022/12/23 09:02:37;;;;;;;23.57;12.53;;;;;;;;;;5076383;28;20446;-79
2022/12/23 09:05:05;;;;;;;24.53;12.60;;;;;;;;;;5048609;28;20795;-74
2022/12/23 09:07:32;;;;;;;27.27;13.73;;;;;;;;;;5089522;28;20509;-75
2022/12/23 09:09:59;;;;;;;25.67;13.00;;;;;;;;;;5089481;28;20296;-75
2022/12/23 09:12:26;;;;;;;29.57;12.67;;;;;;;;;;5089112;28;20439;-75
2022/12/23 09:14:53;;;;;;;26.97;13.13;;;;;;;;;;5070411;28;20189;-75
2022/12/23 09:17:20;;;;;;;18.37;9.73;;;;;;;;;;5089354;28;20497;-74
2022/12/23 09:19:48;;;;;;;27.07;12.53;;;;;;;;;;5077028;28;23201;-74
2022/12/23 09:22:18;;;;;;;28.57;12.57;;;;;;;;;;5073254;28;20542;-75
2022/12/23 09:24:45;;;;;;;25.10;11.20;;;;;;;;;;5088677;28;20185;-74
2022/12/23 09:27:12;;;;;;;27.37;12.07;;;;;;;;;;5089293;28;20418;-74
2022/12/23 09:29:39;;;;;;;23.73;12.53;;;;;;;;;;5054156;28;20178;-75
2022/12/23 09:32:06;;;;;;;29.70;14.70;;;;;;;;;;5070712;28;20648;-75
2022/12/23 09:34:33;;;;;;;27.87;14.73;;;;;;;;;;5088891;28;20200;-75
2022/12/23 09:37:01;;;;;;;31.23;15.30;;;;;;;;;;5088909;28;20213;-75
2022/12/23 09:39:28;;;;;;;29.40;14.27;;;;;;;;;;5078702;28;20182;-75
2022/12/23 09:42:06;;;;;;;31.40;15.10;;;;;;;;;;5068784;28;20194;-74
2022/12/23 09:44:42;;;;;;;28.17;14.07;;;;;;;;;;5034649;28;20209;-62
2022/12/23 09:47:10;;;;;;;23.30;11.53;;;;;;;;;;5061135;28;20226;-62
2022/12/23 09:49:40;;;;;;;32.47;16.10;;;;;;;;;;5074179;28;20568;-62
2022/12/23 09:52:08;;;;;;;27.77;13.77;;;;;;;;;;5088607;28;20880;-61
2022/12/23 09:54:41;;;;;;;32.37;14.70;;;;;;;;;;5067386;28;20304;-61
2022/12/23 09:57:21;;;;;;;28.17;13.00;;;;;;;;;;5070109;28;20722;-60
2022/12/23 10:00:00;;;;;;;31.17;15.33;;;;;;;;;;5088079;28;20435;-73
2022/12/23 10:02:33;;;;;;;26.73;15.63;;;;;;;;;;5065432;28;21099;-81
2022/12/23 10:05:13;;;;;;;30.50;15.50;;;;;;;;;;5062944;28;20479;-78
2022/12/23 10:07:50;;;;;;;33.43;17.13;;;;;;;;;;5088983;28;20195;-78
2022/12/23 10:10:37;;;;;;;24.93;11.73;;;;;;;;;;5089761;28;20194;-71
2022/12/23 10:13:06;;;;;;;42.93;18.70;;;;;;;;;;5067385;28;20194;-71
2022/12/23 10:15:33;;;;;;;31.00;15.90;;;;;;;;;;5066054;28;20197;-68
2022/12/23 10:18:26;;;;;;;30.33;15.27;;;;;;;;;;5085128;28;20438;-69
2022/12/23 10:21:03;;;;;;;32.57;14.37;;;;;;;;;;5047361;28;20444;-76
2022/12/23 10:23:35;;;;;;;46.27;20.73;;;;;;;;;;5063366;28;20522;-74
2022/12/23 10:26:06;;;;;;;34.97;17.37;;;;;;;;;;5066398;28;20208;-74
2022/12/23 10:28:33;;;;;;;30.43;15.87;;;;;;;;;;5055177;28;20462;-75
2022/12/23 10:31:01;;;;;;;30.37;14.83;;;;;;;;;;5107365;28;20212;-74
2022/12/23 10:33:48;;;;;;;27.43;12.93;;;;;;;;;;5085709;28;20262;-75
2022/12/23 10:36:20;;;;;;;31.50;15.87;;;;;;;;;;5067966;28;20213;-75
2022/12/23 10:38:47;;;;;;;31.03;16.30;;;;;;;;;;5065046;28;20454;-75
2022/12/23 10:41:17;;;;;;;33.33;16.33;;;;;;;;;;5083970;28;20447;-75
2022/12/23 10:43:47;;;;;;;30.27;15.60;;;;;;;;;;5085021;28;20189;-73
2022/12/23 10:46:23;;;;;;;36.87;16.20;;;;;;;;;;5083137;28;20217;-71
2022/12/23 10:48:56;;;;;;;28.50;14.80;;;;;;;;;;5063581;28;20466;-73
2022/12/23 10:51:24;;;;;;;32.07;16.63;;;;;;;;;;5083731;28;20426;-73
2022/12/23 10:53:55;;;;;;;33.77;16.10;;;;;;;;;;5093650;28;20181;-72
2022/12/23 10:56:22;;;;;;;32.10;16.67;;;;;;;;;;5057964;28;20225;-73
2022/12/23 10:58:50;;;;;;;30.83;15.17;;;;;;;;;;5083478;28;20197;-72
2022/12/23 11:01:17;;;;;;;32.70;17.47;;;;;;;;;;5071653;28;20198;-73
2022/12/23 11:03:58;;;;;;;36.30;16.33;;;;;;;;;;5055635;28;20255;-73
2022/12/23 11:06:26;;;;;;;33.30;15.63;;;;;;;;;;5072205;28;20193;-71
2022/12/23 11:09:02;;;;;;;28.80;15.13;;;;;;;;;;5073870;28;20197;-71
2022/12/23 11:11:47;;;;;;;38.03;18.40;;;;;;;;;;5054262;28;20423;-71
2022/12/23 11:14:34;;;;;;;28.43;14.23;;;;;;;;;;5071227;28;20280;-66
2022/12/23 11:17:28;;;;;;;25.73;13.93;;;;;;;;;;5071913;28;20205;-65
2022/12/23 11:20:06;;;;;;;27.40;13.73;;;;;;;;;;5074975;28;20193;-71
2022/12/23 11:22:32;;;;;;;27.43;12.97;;;;;;;;;;5074252;28;20193;-72
2022/12/23 11:25:19;;;;;;;30.27;13.80;;;;;;;;;;5063491;28;20553;-72
2022/12/23 11:27:45;;;;;;;27.83;13.73;;;;;;;;;;5071743;28;20192;-71
2022/12/23 11:30:18;;;;;;;29.67;12.67;;;;;;;;;;5068001;28;20727;-71
2022/12/23 11:32:45;;;;;;;24.57;12.80;;;;;;;;;;5071380;28;20294;-73
2022/12/23 11:35:23;;;;;;;25.60;12.47;;;;;;;;;;5040024;28;20243;-71
2022/12/23 11:37:50;;;;;;;28.00;11.07;;;;;;;;;;5075779;28;20641;-74
2022/12/23 11:40:24;;;;;;;26.33;12.67;;;;;;;;;;5062579;28;20200;-75
2022/12/23 11:42:55;;;;;;;26.13;11.80;;;;;;;;;;5108718;28;20185;-75
2022/12/23 11:45:24;;;;;;;28.40;12.50;;;;;;;;;;5106868;28;20574;-74
2022/12/23 11:47:52;;;;;;;29.17;13.43;;;;;;;;;;5083877;28;20519;-72
2022/12/23 11:50:23;;;;;;;27.23;12.13;;;;;;;;;;5096000;28;20233;-73
2022/12/23 11:52:51;;;;;;;22.23;11.30;;;;;;;;;;5106488;28;20652;-74
2022/12/23 11:55:25;;;;;;;23.67;11.93;;;;;;;;;;5073475;28;20193;-74
2022/12/23 11:57:52;;;;;;;26.93;12.33;;;;;;;;;;5089088;28;20200;-74
2022/12/23 12:00:28;;;;;;;27.53;11.87;;;;;;;;;;5085881;28;20288;-73
2022/12/23 12:02:55;;;;;;;30.37;13.33;;;;;;;;;;5090751;28;20189;-71
2022/12/23 12:05:37;;;;;;;24.43;12.23;;;;;;;;;;5063015;28;20448;-74
2022/12/23 12:08:11;;;;;;;32.23;14.33;;;;;;;;;;5036308;28;20563;-74
2022/12/23 12:10:38;;;;;;;27.40;13.73;;;;;;;;;;5053060;28;20202;-74
2022/12/23 12:13:19;;;;;;;26.80;13.27;;;;;;;;;;5052927;28;20285;-74
2022/12/23 12:15:59;;;;;;;29.37;12.93;;;;;;;;;;5036239;28;20205;-74
2022/12/23 12:18:26;;;;;;;29.67;14.37;;;;;;;;;;5053283;28;20198;-74
2022/12/23 12:20:54;;;;;;;28.40;13.93;;;;;;;;;;5052395;28;20205;-74
2022/12/23 12:23:22;;;;;;;29.80;14.27;;;;;;;;;;5053229;28;20260;-74
2022/12/23 12:25:57;;;;;;;29.97;14.47;;;;;;;;;;5052744;28;20820;-74
2022/12/23 12:28:25;;;;;;;29.07;13.93;;;;;;;;;;5036190;28;20197;-74
2022/12/23 12:30:54;;;;;;;28.20;13.83;;;;;;;;;;5052515;28;20193;-74
2022/12/23 12:33:47;;;;;;;33.97;14.83;;;;;;;;;;5053381;28;20186;-74
2022/12/23 12:36:34;;;;;;;27.47;13.63;;;;;;;;;;5041287;28;20218;-74
2022/12/23 12:39:02;;;;;;;32.30;14.23;;;;;;;;;;5070454;28;20591;-74
2022/12/23 12:41:29;;;;;;;33.07;14.43;;;;;;;;;;5069437;28;20205;-73
2022/12/23 12:43:56;;;;;;;32.10;15.13;;;;;;;;;;5070184;28;20666;-73
2022/12/23 12:46:30;;;;;;;33.50;14.70;;;;;;;;;;5081094;28;20822;-73
2022/12/23 12:49:16;;;;;;;32.33;14.20;;;;;;;;;;5055418;28;20229;-74
2022/12/23 12:51:55;;;;;;;27.80;13.70;;;;;;;;;;5090250;28;20190;-73
2022/12/23 12:54:49;;;;;;;31.60;14.50;;;;;;;;;;5067762;28;20201;-74
2022/12/23 12:57:17;;;;;;;26.20;13.70;;;;;;;;;;5067674;28;20692;-73
2022/12/23 13:00:04;;;;;;;28.37;13.67;;;;;;;;;;5054933;28;20170;-74
2022/12/23 13:02:51;;;;;;;34.37;15.27;;;;;;;;;;5052608;28;20186;-74
2022/12/23 13:05:19;;;;;;;31.33;14.27;;;;;;;;;;5057744;28;20197;-73
2022/12/23 13:07:49;;;;;;;34.10;17.10;;;;;;;;;;5051821;28;20560;-74
2022/12/23 13:10:26;;;;;;;29.80;14.20;;;;;;;;;;5051914;28;20194;-74
2022/12/23 13:12:56;;;;;;;29.43;14.23;;;;;;;;;;5069629;28;20189;-73
2022/12/23 13:15:33;;;;;;;34.30;16.57;;;;;;;;;;5052523;28;20281;-74
2022/12/23 13:18:20;;;;;;;26.57;13.73;;;;;;;;;;5055069;28;20197;-73
2022/12/23 13:21:00;;;;;;;36.07;15.83;;;;;;;;;;5068783;28;20188;-74
2022/12/23 13:23:46;;;;;;;34.03;15.47;;;;;;;;;;5069365;28;20178;-74
2022/12/23 13:26:32;;;;;;;33.33;15.33;;;;;;;;;;5069583;28;20190;-74
2022/12/23 13:29:01;;;;;;;32.63;15.63;;;;;;;;;;5069531;28;20428;-74
2022/12/23 13:31:33;;;;;;;31.73;14.67;;;;;;;;;;5068844;28;20277;-75
2022/12/23 13:34:20;;;;;;;26.63;12.53;;;;;;;;;;5069723;28;20440;-74
2022/12/23 13:37:03;;;;;;;34.17;15.57;;;;;;;;;;5068989;28;20689;-74
2022/12/23 13:39:36;;;;;;;32.33;16.27;;;;;;;;;;5051632;28;20430;-74
2022/12/23 13:42:03;;;;;;;34.17;16.23;;;;;;;;;;5069397;28;20277;-74
2022/12/23 13:44:31;;;;;;;39.80;16.93;;;;;;;;;;5051645;28;20531;-74
2022/12/23 13:46:58;;;;;;;36.07;17.10;;;;;;;;;;5051699;28;20235;-74
2022/12/23 13:49:31;;;;;;;30.87;15.20;;;;;;;;;;5068896;28;20225;-74
2022/12/23 13:51:58;;;;;;;30.50;15.60;;;;;;;;;;5069090;28;20244;-74
2022/12/23 13:54:36;;;;;;;35.03;16.57;;;;;;;;;;5087629;28;20193;-74
2022/12/23 13:57:11;;;;;;;30.97;15.70;;;;;;;;;;5047641;28;20477;-74
2022/12/23 13:59:43;;;;;;;33.47;15.30;;;;;;;;;;5065391;28;20423;-74
2022/12/23 14:02:28;;;;;;;31.43;15.40;;;;;;;;;;5051126;28;20522;-74
2022/12/23 14:04:56;;;;;;;30.70;15.00;;;;;;;;;;5069223;28;20213;-74
2022/12/23 14:07:23;;;;;;;31.57;16.47;;;;;;;;;;5051264;28;20229;-74
2022/12/23 14:09:54;;;;;;;33.97;15.10;;;;;;;;;;5051414;28;20431;-74
2022/12/23 14:12:27;;;;;;;29.13;14.73;;;;;;;;;;5069024;28;20548;-74
2022/12/23 14:15:00;;;;;;;33.17;15.40;;;;;;;;;;5068742;28;20224;-74
2022/12/23 14:17:33;;;;;;;29.90;14.13;;;;;;;;;;5068568;28;20472;-74
2022/12/23 14:20:27;;;;;;;30.37;13.27;;;;;;;;;;5034607;28;20882;-75
2022/12/23 14:23:20;;;;;;;28.40;13.13;;;;;;;;;;5052868;28;20260;-74
2022/12/23 14:26:23;;;;;;;28.57;14.27;;;;;;;;;;5058185;28;20189;-74
2022/12/23 14:28:53;;;;;;;31.03;14.00;;;;;;;;;;5068714;28;20181;-74
2022/12/23 14:31:26;;;;;;;31.37;14.80;;;;;;;;;;5051112;28;20190;-74
2022/12/23 14:33:56;;;;;;;34.80;15.17;;;;;;;;;;5068767;28;20799;-75
2022/12/23 14:36:24;;;;;;;30.67;14.87;;;;;;;;;;5051077;28;20459;-74
2022/12/23 14:39:10;;;;;;;29.43;14.90;;;;;;;;;;5069097;28;20431;-74
2022/12/23 14:41:37;;;;;;;35.27;15.17;;;;;;;;;;5068833;28;20489;-74
2022/12/23 14:44:17;;;;;;;26.67;13.63;;;;;;;;;;5050344;28;20446;-74
2022/12/23 14:47:01;;;;;;;26.00;13.03;;;;;;;;;;5068838;28;20561;-74
2022/12/23 14:49:33;;;;;;;26.10;13.60;;;;;;;;;;5068471;28;20472;-74
2022/12/23 14:52:25;;;;;;;28.43;14.13;;;;;;;;;;5051461;28;20198;-74
2022/12/23 14:54:52;;;;;;;32.63;15.57;;;;;;;;;;5067611;28;20186;-74
2022/12/23 14:57:36;;;;;;;30.53;14.80;;;;;;;;;;5053253;28;20659;-74
2022/12/23 15:00:03;;;;;;;33.20;15.40;;;;;;;;;;5067549;28;20790;-74
2022/12/23 15:02:32;;;;;;;28.83;14.57;;;;;;;;;;5067392;28;20190;-74